TimeAST,TemperatureF,Dew PointF,Humidity,Sea Level PressureIn,VisibilityMPH,Wind Direction,Wind SpeedMPH,Gust SpeedMPH,PrecipitationIn,Events,Conditions,WindDirDegrees,DateUTC
12:00 AM,20.5,19.4,96,-9999,-9999.0,North,-9999.0,-,N/A,,Unknown,0,2012-12-08 04:00:00
1:00 AM,19.9,19.0,96,-9999,-9999.0,North,-9999.0,-,N/A,,Unknown,0,2012-12-08 05:00:00
2:00 AM,21.9,21.0,96,-9999,-9999.0,North,-9999.0,-,N/A,,Unknown,0,2012-12-08 06:00:00
3:00 AM,24.4,23.5,96,-9999,-9999.0,North,-9999.0,-,N/A,,Unknown,0,2012-12-08 07:00:00
4:00 AM,26.6,25.7,96,-9999,-9999.0,North,-9999.0,-,N/A,,Unknown,0,2012-12-08 08:00:00
5:00 AM,27.5,26.6,96,-9999,-9999.0,North,-9999.0,-,N/A,,Unknown,0,2012-12-08 09:00:00
6:00 AM,28.4,27.5,96,-9999,-9999.0,North,-9999.0,-,N/A,,Unknown,0,2012-12-08 10:00:00
7:00 AM,29.8,28.6,95,-9999,-9999.0,North,-9999.0,-,N/A,,Unknown,0,2012-12-08 11:00:00
8:00 AM,30.4,28.9,94,-9999,-9999.0,North,-9999.0,-,N/A,,Unknown,0,2012-12-08 12:00:00
9:00 AM,31.8,30.2,94,-9999,-9999.0,North,-9999.0,-,N/A,,Unknown,0,2012-12-08 13:00:00
10:00 AM,34.0,31.6,91,-9999,-9999.0,North,-9999.0,-,N/A,,Unknown,0,2012-12-08 14:00:00
11:00 AM,36.0,34.7,95,-9999,-9999.0,North,-9999.0,-,N/A,,Unknown,0,2012-12-08 15:00:00
12:00 PM,37.4,36.5,97,-9999,-9999.0,North,-9999.0,-,N/A,,Unknown,0,2012-12-08 16:00:00
1:00 PM,42.8,42.3,98,-9999,-9999.0,North,-9999.0,-,N/A,,Unknown,0,2012-12-08 17:00:00
2:00 PM,43.5,42.8,97,-9999,-9999.0,North,-9999.0,-,N/A,,Unknown,0,2012-12-08 18:00:00
3:00 PM,43.2,42.4,97,-9999,-9999.0,North,-9999.0,-,0.03,,Unknown,0,2012-12-08 19:00:00
4:00 PM,43.2,42.4,97,-9999,-9999.0,North,-9999.0,-,0.03,,Unknown,0,2012-12-08 20:00:00
5:00 PM,43.9,43.2,97,-9999,-9999.0,North,-9999.0,-,0.05,,Unknown,0,2012-12-08 21:00:00
6:00 PM,45.0,44.4,98,-9999,-9999.0,North,-9999.0,-,0.03,,Unknown,0,2012-12-08 22:00:00
7:00 PM,45.7,45.1,98,-9999,-9999.0,North,-9999.0,-,0.03,,Unknown,0,2012-12-08 23:00:00
8:00 PM,46.8,46.2,98,-9999,-9999.0,North,-9999.0,-,0.03,,Unknown,0,2012-12-09 00:00:00
9:00 PM,47.1,46.6,98,-9999,-9999.0,North,-9999.0,-,0.05,,Unknown,0,2012-12-09 01:00:00
10:00 PM,48.7,48.2,98,-9999,-9999.0,North,-9999.0,-,0.05,,Unknown,0,2012-12-09 02:00:00
11:00 PM,51.6,51.1,98,-9999,-9999.0,North,-9999.0,-,0.04,,Unknown,0,2012-12-09 03:00:00